Time;durP1;ratioP1;P1;durP2;ratioP2;P2;SDS_P1;SDS_P2;PMS_P1;PMS_P2;Temp;Humidity;BMP_temperature;BMP_pressure;BME280_temperature;BME280_humidity;BME280_pressure;Samples;Min_cycle;Max_cycle;Signal;HPM_P1;HPM_P2
2022/02/05 00:00:35;;;;;;;17.90;8.75;;;;;;;4.59;82.09;98336.09;4301706;82;21049;-91
2022/02/05 00:06:40;;;;;;;16.60;8.78;;;;;;;4.59;82.00;98328.77;4177085;83;21124;-91
2022/02/05 00:44:27;;;;;;;12.37;7.85;;;;;;;4.70;81.89;98304.04;4338686;80;21087;-91
2022/02/05 00:50:33;;;;;;;13.83;8.08;;;;;;;4.71;81.59;98306.95;4322520;80;21561;-91
2022/02/05 01:02:50;;;;;;;17.62;8.93;;;;;;;4.77;81.50;98318.34;4263539;82;21048;-91
2022/02/05 01:08:51;;;;;;;14.75;8.58;;;;;;;4.78;81.67;98313.12;4274076;82;21435;-90
2022/02/05 01:14:59;;;;;;;14.40;8.53;;;;;;;4.79;81.22;98320.89;4258979;82;21008;-91
2022/02/05 01:21:10;;;;;;;13.88;8.05;;;;;;;4.78;81.77;98315.27;4231592;82;21094;-90
2022/02/05 01:27:19;;;;;;;14.18;8.20;;;;;;;4.76;81.94;98322.95;4170361;82;21106;-91
2022/02/05 01:33:35;;;;;;;14.18;8.50;;;;;;;4.76;81.96;98308.05;4225532;82;21091;-90
2022/02/05 02:11:11;;;;;;;10.60;6.95;;;;;;;4.72;82.37;98301.77;4285658;80;21065;-90
2022/02/05 02:29:43;;;;;;;13.05;8.03;;;;;;;4.73;82.55;98277.58;4290060;80;21126;-91
2022/02/05 02:35:36;;;;;;;14.40;8.38;;;;;;;4.59;82.55;98296.79;4335537;80;21647;-90
2022/02/05 02:41:53;;;;;;;12.00;7.67;;;;;;;4.49;82.99;98303.56;4319089;80;21022;-90
2022/02/05 02:47:42;;;;;;;13.18;7.42;;;;;;;4.57;82.95;98322.13;4297087;80;21037;-90
2022/02/05 03:00:10;;;;;;;14.40;9.30;;;;;;;4.61;83.25;98329.77;4252634;80;28138;-91
2022/02/05 03:06:17;;;;;;;14.55;8.73;;;;;;;4.79;83.38;98324.20;4306987;79;21538;-92
2022/02/05 03:12:19;;;;;;;12.45;7.90;;;;;;;4.78;83.33;98304.42;4303860;80;21066;-91
2022/02/05 03:18:46;;;;;;;15.68;7.72;;;;;;;4.79;83.14;98309.28;4310826;80;21042;-91
2022/02/05 03:24:37;;;;;;;12.98;7.55;;;;;;;4.79;83.02;98305.98;4260250;82;21075;-90
2022/02/05 03:30:42;;;;;;;14.07;7.10;;;;;;;4.77;83.24;98311.55;4123537;83;21105;-90
2022/02/05 03:36:46;;;;;;;11.78;7.20;;;;;;;4.78;83.21;98311.20;4231506;81;152902;-90
2022/02/05 03:42:50;;;;;;;12.63;7.05;;;;;;;4.79;83.16;98317.42;4208352;82;21141;-91
2022/02/05 03:48:51;;;;;;;11.12;7.03;;;;;;;4.82;83.19;98319.42;4167449;82;21075;-90
2022/02/05 03:54:58;;;;;;;11.68;6.80;;;;;;;4.89;82.75;98322.88;4204950;82;21041;-91
2022/02/05 04:00:59;;;;;;;13.65;7.05;;;;;;;4.92;82.93;98328.34;4204703;82;21070;-92
2022/02/05 04:07:04;;;;;;;11.35;6.12;;;;;;;4.94;83.00;98332.06;4269252;81;22319;-91
2022/02/05 04:19:44;;;;;;;11.35;6.58;;;;;;;4.87;83.43;98335.39;4284340;81;21117;-91
2022/02/05 04:25:43;;;;;;;10.68;6.47;;;;;;;4.81;83.67;98339.52;4191644;83;21050;-90
2022/02/05 04:31:45;;;;;;;12.45;7.40;;;;;;;4.73;84.07;98347.27;4268780;82;21074;-91
2022/02/05 04:37:55;;;;;;;13.40;7.17;;;;;;;4.68;84.27;98339.44;4223260;82;21070;-91
2022/02/05 04:56:33;;;;;;;10.23;6.12;;;;;;;4.66;84.54;98364.19;4247834;82;21079;-91
2022/02/05 05:03:28;;;;;;;11.45;6.80;;;;;;;4.71;84.81;98368.55;4249230;82;21108;-92
2022/02/05 05:21:10;;;;;;;7.25;4.03;;;;;;;4.70;86.18;98392.16;4239767;82;21039;-91
2022/02/05 05:27:13;;;;;;;8.18;4.75;;;;;;;4.82;86.51;98411.62;4215490;82;21050;-91
2022/02/05 05:33:19;;;;;;;6.80;3.37;;;;;;;4.90;87.29;98464.90;4239527;82;21069;-92
2022/02/05 05:39:26;;;;;;;6.85;2.83;;;;;;;4.64;87.49;98481.67;4260674;82;22000;-91
2022/02/05 05:45:41;;;;;;;3.98;2.75;;;;;;;4.37;87.80;98509.59;4231354;82;21046;-92
2022/02/05 05:51:39;;;;;;;3.33;1.87;;;;;;;4.18;88.03;98545.23;4217819;82;21046;-91
2022/02/05 05:57:40;;;;;;;3.95;1.75;;;;;;;4.01;87.46;98569.89;4262977;81;21133;-92
2022/02/05 06:03:45;;;;;;;2.85;1.75;;;;;;;3.87;87.30;98570.81;4217139;80;3885139;-91
2022/02/05 06:09:48;;;;;;;9.25;3.25;;;;;;;3.72;87.13;98590.45;4385639;78;21097;-91
2022/02/05 06:15:56;;;;;;;7.70;3.87;;;;;;;3.64;87.02;98621.13;4344641;80;21015;-91
2022/02/05 06:22:02;;;;;;;8.70;3.95;;;;;;;3.51;86.51;98648.74;4393157;78;21070;-90
2022/02/05 06:28:09;;;;;;;16.62;8.25;;;;;;;3.50;85.43;98666.67;4372791;80;21050;-92
2022/02/05 06:34:10;;;;;;;8.45;2.80;;;;;;;3.46;85.00;98677.95;4404674;78;21551;-91
2022/02/05 06:40:12;;;;;;;6.60;3.12;;;;;;;3.34;85.00;98702.25;4382495;78;21038;-90
2022/02/05 06:46:20;;;;;;;4.00;1.75;;;;;;;3.14;85.03;98716.88;4350728;80;21171;-91
2022/02/05 06:52:24;;;;;;;4.20;1.70;;;;;;;2.95;85.07;98728.73;4393266;78;21078;-91
2022/02/05 06:58:27;;;;;;;2.80;1.25;;;;;;;2.89;85.02;98734.66;4383990;79;21062;-90
2022/02/05 07:04:29;;;;;;;3.75;1.77;;;;;;;2.79;84.99;98746.67;4356395;80;21055;-89
2022/02/05 07:10:31;;;;;;;3.92;2.00;;;;;;;2.78;85.02;98765.92;4384191;80;21156;-90
2022/02/05 07:16:40;;;;;;;3.92;1.75;;;;;;;2.75;85.22;98774.14;4375255;80;21347;-90
2022/02/05 07:23:13;;;;;;;2.75;1.60;;;;;;;2.93;85.40;98782.89;4357146;78;21003;-91
2022/02/05 07:35:15;;;;;;;8.05;3.08;;;;;;;3.26;85.17;98795.91;4374127;78;21136;-91
2022/02/05 07:41:19;;;;;;;7.75;3.27;;;;;;;3.36;85.00;98804.18;4362553;79;21684;-90
2022/02/05 07:47:33;;;;;;;7.65;2.50;;;;;;;3.39;84.59;98818.40;4393338;78;21043;-91
2022/02/05 07:53:39;;;;;;;5.70;2.52;;;;;;;3.43;84.22;98823.39;4378501;80;21045;-91
2022/02/05 07:59:37;;;;;;;5.08;2.50;;;;;;;3.42;84.12;98832.06;4370327;80;21097;-91
2022/02/05 08:05:44;;;;;;;6.08;2.60;;;;;;;3.45;83.96;98848.19;4375714;80;21272;-92
2022/02/05 08:11:58;;;;;;;7.17;2.65;;;;;;;3.62;82.13;98844.00;4375412;78;21063;-92
2022/02/05 08:17:56;;;;;;;8.20;3.08;;;;;;;3.65;82.69;98864.41;4373776;79;22209;-89
2022/02/05 08:24:00;;;;;;;7.78;2.83;;;;;;;3.68;82.55;98878.63;4369852;79;21367;-90
2022/02/05 08:30:10;;;;;;;6.80;3.05;;;;;;;3.73;82.02;98885.78;4329988;79;21074;-90
2022/02/05 08:36:09;;;;;;;8.83;3.40;;;;;;;3.71;82.07;98897.49;4374946;80;21043;-91
2022/02/05 08:42:14;;;;;;;7.47;2.60;;;;;;;3.68;81.34;98898.93;4391584;79;21054;-92
2022/02/05 08:48:16;;;;;;;9.40;2.25;;;;;;;3.56;81.62;98873.17;4274996;81;22946;-89
2022/02/05 08:54:17;;;;;;;7.47;2.27;;;;;;;3.86;81.94;98899.02;4252558;81;21595;-91
2022/02/05 09:00:24;;;;;;;6.78;2.27;;;;;;;4.01;79.18;98889.48;4300398;80;21614;-91
2022/02/05 09:06:27;;;;;;;9.50;2.62;;;;;;;4.12;80.56;98902.84;4287500;80;21063;-90
2022/02/05 09:12:44;;;;;;;5.50;2.00;;;;;;;4.13;80.54;98901.15;4207113;81;21040;-89
2022/02/05 09:18:53;;;;;;;7.72;2.25;;;;;;;4.11;79.07;98916.94;4366923;78;21051;-91
2022/02/05 09:24:52;;;;;;;9.35;2.75;;;;;;;4.13;79.19;98920.11;4389957;79;21072;-92
2022/02/05 09:37:09;;;;;;;;;;;;;;;4.12;77.59;98929.34;4390265;78;21110;-90
2022/02/05 09:43:13;;;;;;;9.28;3.45;;;;;;;4.10;77.36;98947.07;4383342;78;20165;-92
2022/02/05 09:49:17;;;;;;;17.50;8.08;;;;;;;4.23;77.91;98953.54;4364148;80;21633;-91
2022/02/05 09:55:19;;;;;;;10.60;2.98;;;;;;;4.42;77.75;98944.89;4285466;81;21042;-90
2022/02/05 10:01:33;;;;;;;10.93;3.17;;;;;;;4.57;76.33;98940.20;4267610;81;21032;-89
2022/02/05 10:07:57;;;;;;;10.55;3.25;;;;;;;4.66;77.28;98944.95;4180747;83;21547;-90
2022/02/05 10:14:21;;;;;;;9.55;3.50;;;;;;;4.69;76.41;98935.58;4217917;80;21011;-92
2022/02/05 10:20:24;;;;;;;10.40;3.60;;;;;;;4.82;76.15;98945.30;4282700;81;21018;-91
2022/02/05 10:26:37;;;;;;;10.53;3.80;;;;;;;4.89;74.73;98938.54;4300927;80;21073;-91
2022/02/05 10:32:54;;;;;;;;;;;;;;;;;;;;;
2022/02/05 10:39:04;;;;;;;5.92;2.40;;;;;;;5.10;74.86;98931.06;4286454;81;21059;-91
2022/02/05 10:45:03;;;;;;;5.42;2.25;;;;;;;5.29;74.26;98917.70;4280841;80;21046;-91
2022/02/05 10:51:07;;;;;;;8.78;2.75;;;;;;;5.52;72.64;98926.92;4270048;80;22269;-92
2022/02/05 11:09:57;;;;;;;9.33;2.58;;;;;;;5.72;70.16;98923.24;4294108;81;21469;-92
2022/02/05 11:22:12;;;;;;;11.65;3.65;;;;;;;5.39;71.87;98924.80;4277598;80;20098;-92
2022/02/05 11:28:16;;;;;;;9.98;3.35;;;;;;;5.19;71.87;98933.88;4302722;80;21111;-91
2022/02/05 11:34:25;;;;;;;13.68;4.30;;;;;;;5.18;71.78;98928.80;4280174;80;21503;-91
2022/02/05 11:40:52;;;;;;;12.05;4.25;;;;;;;5.30;70.78;98926.06;4303486;80;21503;-91
2022/02/05 11:47:13;;;;;;;8.20;3.87;;;;;;;5.44;71.18;98925.13;4019663;85;21586;-90
2022/02/05 11:53:17;;;;;;;12.15;5.30;;;;;;;5.44;70.97;98936.79;4297744;80;21054;-90
2022/02/05 12:00:05;;;;;;;10.60;4.42;;;;;;;5.34;69.60;98954.89;4181038;83;21085;-91
2022/02/05 12:06:09;;;;;;;8.45;3.55;;;;;;;4.99;71.03;98982.28;4347733;80;21035;-92
2022/02/05 12:12:45;;;;;;;8.90;3.45;;;;;;;4.50;72.60;98961.08;4384850;79;21085;-91
2022/02/05 12:19:27;;;;;;;6.00;2.95;;;;;;;4.90;74.24;98949.05;4302879;80;21053;-91
2022/02/05 12:25:20;;;;;;;9.97;4.07;;;;;;;4.95;73.22;98963.72;4313211;80;21779;-90
2022/02/05 12:31:33;;;;;;;7.40;3.22;;;;;;;4.79;73.17;98989.36;4372663;78;21022;-91
2022/02/05 12:37:40;;;;;;;9.88;3.67;;;;;;;4.43;74.16;99008.84;4371488;80;21039;-91
2022/02/05 12:44:00;;;;;;;5.85;2.17;;;;;;;3.39;77.52;98984.80;4361618;78;21050;-91
2022/02/05 12:50:13;;;;;;;6.28;2.00;;;;;;;2.91;77.64;98993.34;4367841;79;21090;-92
2022/02/05 12:56:20;;;;;;;6.10;3.00;;;;;;;3.02;78.33;98994.57;4361073;79;21301;-91
2022/02/05 13:02:26;;;;;;;9.73;4.58;;;;;;;3.16;78.83;98995.14;4382914;79;21122;-91
2022/02/05 13:08:27;;;;;;;12.15;5.70;;;;;;;3.48;80.01;98993.69;4367722;79;21655;-91
2022/02/05 13:15:04;;;;;;;15.70;8.65;;;;;;;3.66;79.76;98986.47;4396632;80;21010;-91
2022/02/05 13:28:30;;;;;;;30.23;14.75;;;;;;;3.98;80.24;98982.22;4396482;79;21043;-90
2022/02/05 13:39:55;;;;;;;20.97;8.85;;;;;;;4.52;79.82;98978.36;4327088;79;1907125;-91
2022/02/05 13:45:58;;;;;;;16.95;8.38;;;;;;;4.71;79.54;98976.69;4206888;82;21153;-91
2022/02/05 13:52:13;;;;;;;9.83;4.75;;;;;;;4.69;79.41;98987.11;4275829;82;21121;-91
2022/02/05 13:58:21;;;;;;;8.88;4.25;;;;;;;4.54;78.10;99006.70;4220766;81;21070;-91
2022/02/05 14:04:24;;;;;;;13.38;6.28;;;;;;;4.34;78.42;99008.91;4258148;82;21085;-91
2022/02/05 14:10:44;;;;;;;;;;;;;;;;;;;;;
2022/02/05 14:16:47;;;;;;;8.95;4.45;;;;;;;4.10;78.48;98995.25;4236657;80;21006;-91
2022/02/05 14:22:51;;;;;;;10.18;4.60;;;;;;;3.88;78.99;98996.98;4249516;80;21099;-91
2022/02/05 14:28:56;;;;;;;8.53;4.75;;;;;;;3.73;78.95;99018.44;4259490;80;21578;-92
2022/02/05 14:41:08;;;;;;;9.95;3.92;;;;;;;3.55;79.34;99083.27;4296993;80;21538;-91
2022/02/05 14:47:12;;;;;;;8.25;3.58;;;;;;;3.18;80.97;99104.59;4262230;81;21023;-92
2022/02/05 14:53:21;;;;;;;11.05;4.40;;;;;;;2.55;81.03;99101.86;4254590;81;21071;-92
2022/02/05 15:05:39;;;;;;;6.85;4.20;;;;;;;2.07;82.75;99089.66;4240958;81;21579;-91
2022/02/05 15:11:51;;;;;;;7.40;2.62;;;;;;;1.96;83.63;99095.90;4139060;84;21575;-91
2022/02/05 15:17:54;;;;;;;11.15;4.22;;;;;;;1.68;83.98;99098.62;4261445;81;21571;-91
2022/02/05 15:24:05;;;;;;;8.90;5.72;;;;;;;1.56;84.23;99126.78;4259672;81;21141;-93
2022/02/05 15:30:20;;;;;;;12.03;7.37;;;;;;;1.43;84.87;99148.72;4125727;84;21540;-91
2022/02/05 15:36:36;;;;;;;14.47;7.42;;;;;;;1.35;85.23;99148.66;4285400;79;20985;-90
2022/02/05 15:49:04;;;;;;;16.77;9.08;;;;;;;1.24;86.03;99176.46;4228975;81;21102;-92
2022/02/05 15:55:10;;;;;;;16.62;8.05;;;;;;;1.26;86.42;99178.84;4277416;80;21355;-89
2022/02/05 16:01:15;;;;;;;20.17;9.77;;;;;;;1.23;89.64;99153.85;4289429;81;21108;-92
2022/02/05 16:07:19;;;;;;;23.02;9.73;;;;;;;1.07;87.81;99160.73;4232651;81;21050;-91
2022/02/05 16:13:20;;;;;;;20.10;10.05;;;;;;;0.99;87.78;99189.78;4293777;80;22244;-92
2022/02/05 16:19:27;;;;;;;23.62;10.98;;;;;;;0.93;87.90;99200.45;4206677;81;21062;-90
2022/02/05 16:25:30;;;;;;;25.32;11.60;;;;;;;0.92;88.28;99210.99;4236264;81;21152;-91
2022/02/05 16:31:38;;;;;;;15.95;9.25;;;;;;;0.91;89.59;99216.15;4251130;80;21083;-91
2022/02/05 16:37:43;;;;;;;18.32;9.28;;;;;;;0.91;90.47;99191.32;4306501;81;21081;-91
2022/02/05 16:43:48;;;;;;;16.95;9.88;;;;;;;0.92;90.16;99205.06;4194695;81;21171;-91
2022/02/05 16:49:52;;;;;;;25.37;11.70;;;;;;;0.90;90.16;99209.95;4125251;82;21632;-91
2022/02/05 16:55:59;;;;;;;27.95;11.90;;;;;;;0.85;89.99;99233.52;4242045;81;21042;-90
2022/02/05 17:02:02;;;;;;;16.20;8.70;;;;;;;0.77;89.86;99244.48;4262551;81;21623;-90
2022/02/05 17:08:05;;;;;;;15.40;8.25;;;;;;;0.73;90.21;99254.29;4262711;80;21191;-91
2022/02/05 17:14:07;;;;;;;17.65;9.20;;;;;;;0.69;89.72;99266.76;4231519;80;102921;-90
2022/02/05 17:20:18;;;;;;;18.27;8.15;;;;;;;0.63;89.83;99277.41;4185801;84;21585;-91
2022/02/05 17:26:26;;;;;;;29.85;9.33;;;;;;;0.62;90.00;99275.02;4307526;81;21095;-91
2022/02/05 17:32:25;;;;;;;;;;;;;;;0.59;90.00;99280.47;4306780;80;21074;-90
2022/02/05 17:38:28;;;;;;;30.40;13.25;;;;;;;0.53;90.20;99278.98;4326295;81;20150;-90
2022/02/05 17:44:29;;;;;;;32.10;13.62;;;;;;;0.61;89.92;99292.29;4243239;81;21594;-91
2022/02/05 17:50:32;;;;;;;38.88;14.73;;;;;;;0.56;90.84;99271.65;4302996;80;21543;-90
2022/02/05 17:56:44;;;;;;;23.95;11.00;;;;;;;0.54;90.23;99294.05;4264934;81;21122;-91
2022/02/05 18:02:48;;;;;;;20.43;9.10;;;;;;;0.44;90.68;99295.59;4139079;80;9999586;-89
2022/02/05 18:08:57;;;;;;;29.00;12.05;;;;;;;0.37;91.28;99295.76;4316790;81;21023;-91
2022/02/05 18:15:03;;;;;;;38.83;15.75;;;;;;;0.21;92.29;99295.27;4301763;81;21088;-90
2022/02/05 18:21:06;;;;;;;39.48;17.80;;;;;;;0.16;93.01;99293.24;4295967;80;21072;-91
2022/02/05 18:27:09;;;;;;;38.78;17.90;;;;;;;0.23;92.87;99307.89;4226032;83;22005;-91
2022/02/05 18:33:10;;;;;;;44.65;23.50;;;;;;;0.38;92.89;99304.08;4151979;84;21556;-90
2022/02/05 18:39:11;;;;;;;42.75;20.72;;;;;;;0.38;92.89;99304.08;4266181;80;21066;-91
2022/02/05 18:45:13;;;;;;;38.92;19.48;;;;;;;0.48;93.08;99313.30;4288848;81;21648;-91
2022/02/05 18:51:19;;;;;;;41.33;20.48;;;;;;;0.57;92.85;99314.19;4308065;81;21060;-91
2022/02/05 18:57:24;;;;;;;37.65;19.87;;;;;;;0.63;93.00;99311.08;4299877;81;21120;-91
2022/02/05 19:10:30;;;;;;;33.92;17.85;;;;;;;0.68;93.11;99298.05;4278002;80;21109;-91
2022/02/05 19:18:07;;;;;;;46.55;20.92;;;;;;;0.68;92.80;99298.05;4260487;81;21076;-91
2022/02/05 19:22:15;;;;;;;56.60;28.92;;;;;;;0.63;92.74;99303.54;4286002;81;21026;-92
2022/02/05 19:28:18;;;;;;;51.33;27.15;;;;;;;0.63;93.06;99293.56;4307786;81;21098;-91
2022/02/05 19:34:19;;;;;;;55.58;27.52;;;;;;;0.58;93.12;99307.72;4225355;81;20995;-90
2022/02/05 19:40:23;;;;;;;55.10;27.90;;;;;;;0.51;92.97;99301.92;4218149;81;21063;-90
2022/02/05 19:46:38;;;;;;;41.85;24.43;;;;;;;0.37;93.12;99307.34;4273005;81;21052;-91
2022/02/05 19:52:29;;;;;;;50.50;24.45;;;;;;;0.30;93.13;99300.77;4274168;81;21036;-91
2022/02/05 19:58:30;;;;;;;53.42;23.35;;;;;;;0.15;93.25;99307.24;4290660;81;21035;-90
2022/02/05 20:04:39;;;;;;;60.95;28.02;;;;;;;-0.01;92.87;99298.66;4291521;81;21112;-90
2022/02/05 20:10:36;;;;;;;66.80;28.57;;;;;;;-0.27;93.47;99298.88;4286914;80;21052;-90
2022/02/05 20:16:38;;;;;;;56.68;26.17;;;;;;;-0.32;94.26;99316.47;4273830;81;21070;-90
2022/02/05 20:22:40;;;;;;;62.35;27.32;;;;;;;-0.35;94.67;99306.84;4263044;81;21126;-90
2022/02/05 20:28:42;;;;;;;60.60;26.40;;;;;;;-0.40;94.93;99303.70;4275666;81;21066;-89
2022/02/05 20:34:44;;;;;;;52.70;25.02;;;;;;;-0.39;94.68;99303.94;4284882;81;21032;-90
2022/02/05 20:40:46;;;;;;;54.53;24.77;;;;;;;-0.41;94.70;99302.08;4289511;81;21071;-90
2022/02/05 20:46:47;;;;;;;48.92;22.85;;;;;;;-0.40;94.77;99317.14;4272762;81;21058;-90
2022/02/05 20:52:51;;;;;;;48.05;19.82;;;;;;;-0.30;95.13;99303.50;4303532;81;21067;-89
2022/02/05 20:58:59;;;;;;;53.55;22.93;;;;;;;-0.26;94.89;99304.52;4313579;81;21519;-89
2022/02/05 21:05:00;;;;;;;36.58;16.90;;;;;;;-0.18;94.83;99300.34;4278235;81;21076;-89
2022/02/05 21:11:02;;;;;;;39.40;19.02;;;;;;;-0.10;94.78;99289.70;4287956;81;21072;-90
2022/02/05 21:17:03;;;;;;;36.10;17.40;;;;;;;-0.04;94.81;99293.08;4269186;81;21097;-89
2022/02/05 21:23:11;;;;;;;35.98;14.90;;;;;;;-0.08;94.66;99279.98;4310761;80;21414;-90
2022/02/05 21:29:12;;;;;;;34.55;16.02;;;;;;;-0.09;94.39;99264.91;4256788;80;21087;-91
2022/02/05 21:35:16;;;;;;;37.95;17.98;;;;;;;-0.09;94.39;99264.91;4291343;81;21063;-89
2022/02/05 21:41:17;;;;;;;40.90;17.43;;;;;;;0.04;94.56;99281.62;4334058;81;21088;-90
2022/02/05 21:47:21;;;;;;;30.20;15.85;;;;;;;0.04;94.60;99296.42;4286525;80;21091;-89
2022/02/05 21:53:22;;;;;;;25.10;11.83;;;;;;;0.03;94.52;99290.23;4291659;80;21722;-89
2022/02/05 21:59:28;;;;;;;24.63;11.88;;;;;;;0.03;94.55;99284.07;4296617;81;21019;-88
2022/02/05 22:05:27;;;;;;;26.50;11.15;;;;;;;0.02;94.73;99281.68;4154400;84;21082;-88
2022/02/05 22:11:28;;;;;;;22.45;9.20;;;;;;;0.05;95.13;99275.70;4122772;84;21072;-89
2022/02/05 22:17:29;;;;;;;19.77;9.35;;;;;;;0.03;95.32;99268.46;4287136;81;21087;-88
2022/02/05 22:23:31;;;;;;;23.07;10.80;;;;;;;0.07;94.92;99282.36;4314456;81;21067;-88
2022/02/05 22:29:33;;;;;;;29.32;12.15;;;;;;;0.14;94.75;99281.43;4282443;81;21086;-89
2022/02/05 22:35:34;;;;;;;26.52;12.88;;;;;;;0.09;94.55;99254.61;4298615;81;21621;-88
2022/02/05 22:41:36;;;;;;;28.45;12.82;;;;;;;0.21;94.20;99267.54;4321067;81;21012;-89
2022/02/05 22:47:37;;;;;;;31.17;14.03;;;;;;;0.07;94.00;99256.80;4276445;81;22110;-90
2022/02/05 22:53:38;;;;;;;35.35;14.53;;;;;;;-0.06;94.02;99247.63;4259893;81;21052;-89
2022/02/05 22:59:39;;;;;;;32.17;13.98;;;;;;;-0.21;93.72;99253.31;4318466;81;21137;-89
2022/02/05 23:05:40;;;;;;;33.48;14.03;;;;;;;-0.40;93.82;99244.52;4312639;81;22247;-89
2022/02/05 23:43:04;;;;;;;41.02;16.97;;;;;;;-0.58;94.93;99229.81;4307851;81;21124;-89
2022/02/05 23:49:11;;;;;;;27.73;11.95;;;;;;;-0.49;94.95;99224.80;4268911;81;21038;-89
2022/02/05 23:55:12;;;;;;;26.65;10.95;;;;;;;-0.40;94.93;99200.68;4259637;80;21071;-89
